To NAV CANADA Home Page Login to a new session Search on AWWS site Feedback and Comments Disclaimer Vers la page française équivalente Tips FAQ What's new on the site To the Forecasts and Observations / NOTAM section To "File a Flight Plan" website Publications and other links Update of the User's profile FIC Telephone Numbers My Weather Data Folder Route Weather Data Regional Weather Data Local Weather Data To the Forecasts and Observations / NOTAM section
Request Generated 04/19/2014 at 22:07:18 UTC . Weather information available at that time is displayed.

METAR/TAF

TRENTON/ON    

METAR CYTR 192200Z 21009KT 15SM FEW120 FEW250 08/00 A3041 RMK AC1CI0 SLP301=
METAR CYTR 192100Z 22011KT 15SM FEW120 FEW250 09/01 A3040 RMK AC1CI0 SLP298=
METAR CYTR 192000Z 16003KT 15SM FEW052 FEW250 11/M01 A3040 RMK CU1CI0 SLP298=

TAF CYTR 191730Z 1918/2018 36005KT P6SM FEW040
FM192300 04005KT P6SM SKC
FM200800 VRB03KT P6SM SCT120
FM201500 12012KT P6SM SKC
RMK NXT FCST BY 200000Z=
Your time UTC time
Weather data provided by Environment Canada and NAV CANADA